Time;durP1;ratioP1;P1;durP2;ratioP2;P2;SDS_P1;SDS_P2;PMS_P1;PMS_P2;Temp;Humidity;BMP_temperature;BMP_pressure;BME280_temperature;BME280_humidity;BME280_pressure;Samples;Min_cycle;Max_cycle;Signal;HPM_P1;HPM_P2
2023/03/26 00:00:42;;;;;;;4.30;3.13;;;;;;;;;;6262102;28;20201;-59
2023/03/26 00:03:45;;;;;;;2.70;2.50;;;;;;;;;;6252003;28;20182;-58
2023/03/26 00:06:50;;;;;;;3.27;2.97;;;;;;;;;;6227681;28;20191;-59
2023/03/26 00:09:52;;;;;;;3.07;2.73;;;;;;;;;;6240256;28;20261;-59
2023/03/26 00:12:53;;;;;;;3.73;2.60;;;;;;;;;;6232558;28;20198;-59
2023/03/26 00:15:54;;;;;;;3.30;2.77;;;;;;;;;;6234355;28;20191;-59
2023/03/26 00:18:56;;;;;;;4.10;2.70;;;;;;;;;;6228496;28;20233;-59
2023/03/26 00:21:57;;;;;;;3.50;2.80;;;;;;;;;;6234463;28;20194;-59
2023/03/26 00:24:58;;;;;;;4.90;2.43;;;;;;;;;;6246243;28;20376;-59
2023/03/26 00:27:59;;;;;;;4.83;2.50;;;;;;;;;;6264964;28;20201;-59
2023/03/26 00:31:02;;;;;;;3.73;2.70;;;;;;;;;;6257125;28;20230;-59
2023/03/26 00:34:04;;;;;;;2.97;2.30;;;;;;;;;;6276769;28;20600;-59
2023/03/26 00:37:05;;;;;;;2.53;2.30;;;;;;;;;;6218042;28;20226;-59
2023/03/26 00:40:09;;;;;;;2.43;2.23;;;;;;;;;;6255697;28;20289;-59
2023/03/26 00:43:17;;;;;;;3.07;2.50;;;;;;;;;;6228284;28;20281;-59
2023/03/26 00:46:19;;;;;;;2.47;1.90;;;;;;;;;;6271567;28;20191;-59
2023/03/26 00:49:20;;;;;;;2.43;2.23;;;;;;;;;;6249419;28;20301;-58
2023/03/26 00:52:22;;;;;;;3.53;2.67;;;;;;;;;;6266996;28;20213;-58
2023/03/26 00:55:23;;;;;;;2.90;2.60;;;;;;;;;;6249259;28;20213;-59
2023/03/26 00:58:25;;;;;;;2.30;2.10;;;;;;;;;;6259880;28;20202;-58
2023/03/26 01:01:27;;;;;;;2.97;2.43;;;;;;;;;;6260581;28;20226;-58
2023/03/26 01:04:30;;;;;;;2.30;2.10;;;;;;;;;;6240595;28;20187;-58
2023/03/26 01:07:31;;;;;;;3.07;2.30;;;;;;;;;;6247948;28;20200;-59
2023/03/26 01:10:37;;;;;;;2.23;2.03;;;;;;;;;;6233442;28;20214;-59
2023/03/26 01:13:39;;;;;;;2.97;2.20;;;;;;;;;;6227803;28;20219;-59
2023/03/26 01:16:44;;;;;;;3.50;2.50;;;;;;;;;;6258363;28;20245;-59
2023/03/26 01:20:11;;;;;;;2.10;1.87;;;;;;;;;;6254798;28;20194;-59
2023/03/26 01:23:16;;;;;;;4.20;2.70;;;;;;;;;;6237200;28;20195;-58
2023/03/26 01:26:22;;;;;;;2.70;2.00;;;;;;;;;;6246279;28;20231;-59
2023/03/26 01:29:26;;;;;;;2.53;1.90;;;;;;;;;;6248500;28;20233;-59
2023/03/26 01:32:30;;;;;;;2.30;2.10;;;;;;;;;;6245852;28;20335;-58
2023/03/26 01:35:31;;;;;;;2.67;2.33;;;;;;;;;;6246416;28;20198;-59
2023/03/26 01:38:38;;;;;;;2.23;2.03;;;;;;;;;;6247658;28;20239;-59
2023/03/26 01:41:42;;;;;;;3.03;2.10;;;;;;;;;;6246498;28;20221;-59
2023/03/26 01:44:47;;;;;;;2.63;2.00;;;;;;;;;;6249384;28;20202;-58
2023/03/26 01:47:48;;;;;;;2.20;2.00;;;;;;;;;;6240767;28;20188;-59
2023/03/26 01:50:52;;;;;;;3.10;2.27;;;;;;;;;;6240793;28;20217;-59
2023/03/26 01:53:54;;;;;;;2.20;2.00;;;;;;;;;;6264444;28;20282;-59
2023/03/26 01:57:07;;;;;;;2.70;1.70;;;;;;;;;;6238986;28;20187;-59
2023/03/26 02:00:19;;;;;;;1.77;1.67;;;20.80;37.50;;;;;;6253419;28;20214;-59
2023/03/26 02:03:30;;;;;;;2.20;2.00;;;3.10;94.50;;;;;;6240936;28;20198;-59
2023/03/26 02:06:50;;;;;;;2.67;2.20;;;3.10;94.50;;;;;;6229450;28;20187;-59
2023/03/26 02:09:58;;;;;;;2.33;1.97;;;;;;;;;;6237794;28;20298;-59
2023/03/26 02:12:59;;;;;;;2.47;1.70;;;;;;;;;;6240993;28;20192;-59
2023/03/26 02:16:01;;;;;;;2.60;1.90;;;;;;;;;;6218726;28;20230;-59
2023/03/26 02:19:03;;;;;;;2.00;1.80;;;;;;;;;;6244684;28;20191;-59
2023/03/26 02:22:04;;;;;;;1.90;1.70;;;;;;;;;;6245822;28;20187;-60
2023/03/26 02:25:05;;;;;;;2.17;1.93;;;;;;;;;;6253265;28;20198;-59
2023/03/26 02:28:06;;;;;;;3.40;1.50;;;;;;;;;;6259025;28;20265;-59
2023/03/26 02:31:12;;;;;;;2.17;1.80;;;;;;;;;;6264122;28;20237;-59
2023/03/26 02:34:14;;;;;;;2.20;2.00;;;;;;;;;;6250929;28;20187;-59
2023/03/26 02:37:17;;;;;;;4.60;2.30;;;;;;;;;;6246222;28;20196;-59
2023/03/26 02:40:21;;;;;;;3.07;2.00;;;;;;;;;;6228812;28;20206;-60
2023/03/26 02:43:22;;;;;;;2.73;2.53;;;;;;;;;;6226751;28;20203;-60
2023/03/26 02:46:23;;;;;;;2.47;2.00;;;;;;;;;;6239970;28;20198;-59
2023/03/26 02:49:24;;;;;;;3.10;2.37;;;;;;;;;;6262132;28;20224;-60
2023/03/26 02:52:25;;;;;;;2.30;2.10;;;;;;;;;;6224019;28;20191;-60
2023/03/26 02:55:27;;;;;;;2.57;2.37;;;;;;;;;;6237696;28;20202;-60
2023/03/26 02:58:29;;;;;;;2.27;1.90;;;;;;;;;;6264733;28;20251;-60
2023/03/26 03:01:33;;;;;;;4.17;2.60;;;;;;;;;;6234002;28;20226;-59
2023/03/26 03:04:34;;;;;;;2.27;2.07;;;;;;;;;;6219771;28;20215;-59
2023/03/26 03:07:37;;;;;;;2.50;2.30;;;;;;;;;;6239956;28;20277;-59
2023/03/26 03:10:38;;;;;;;2.93;2.17;;;;;;;;;;6232470;28;20269;-59
2023/03/26 03:13:39;;;;;;;3.27;2.70;;;;;;;;;;6241918;28;20198;-58
2023/03/26 03:16:40;;;;;;;3.00;2.40;;;;;;;;;;6263958;28;20194;-59
2023/03/26 03:19:41;;;;;;;2.60;2.40;;;;;;;;;;6246936;28;20194;-59
2023/03/26 03:22:43;;;;;;;2.67;2.20;;;;;;;;;;6252373;28;20194;-58
2023/03/26 03:25:44;;;;;;;2.73;2.43;;;;;;;;;;6249430;28;20252;-59
2023/03/26 03:28:45;;;;;;;2.30;2.10;;;;;;;;;;6234766;28;20259;-59
2023/03/26 03:31:47;;;;;;;2.30;2.03;;;;;;;;;;6227348;28;20243;-58
2023/03/26 03:34:49;;;;;;;3.43;2.40;;;;;;;;;;6226030;28;20191;-58
2023/03/26 03:37:50;;;;;;;4.00;2.10;;;;;;;;;;6229152;28;20199;-58
2023/03/26 03:40:53;;;;;;;2.33;2.00;;;;;;;;;;6234617;28;20220;-59
2023/03/26 03:43:54;;;;;;;3.53;2.13;;;;;;;;;;6265164;28;20205;-58
2023/03/26 03:46:55;;;;;;;2.20;2.00;;;;;;;;;;6264647;28;20191;-59
2023/03/26 03:49:58;;;;;;;2.73;2.40;;;;;;;;;;6264840;28;20285;-58
2023/03/26 03:52:59;;;;;;;2.23;1.80;;;;;;;;;;6230635;28;20199;-58
2023/03/26 03:56:00;;;;;;;3.80;2.17;;;;;;;;;;6267156;28;20231;-59
2023/03/26 03:59:02;;;;;;;2.93;2.63;;;;;;;;;;6234917;28;20201;-59
2023/03/26 04:02:03;;;;;;;2.47;2.20;;;;;;;;;;6246548;28;20221;-59
2023/03/26 04:05:04;;;;;;;2.30;2.10;;;;;;;;;;6253384;28;20193;-58
2023/03/26 04:08:06;;;;;;;2.27;2.07;;;;;;;;;;6247245;28;20299;-58
2023/03/26 04:11:07;;;;;;;2.40;1.90;;;;;;;;;;6250366;28;20183;-58
2023/03/26 04:14:09;;;;;;;4.37;2.27;;;;;;;;;;6238769;28;20190;-59
2023/03/26 04:17:12;;;;;;;2.47;2.27;;;;;;;;;;6225561;28;20199;-59
2023/03/26 04:20:14;;;;;;;2.47;1.77;;;;;;;;;;6265641;28;20202;-59
2023/03/26 04:23:16;;;;;;;5.50;2.07;;;;;;;;;;6247165;28;20194;-59
2023/03/26 04:26:19;;;;;;;2.10;1.90;;;;;;;;;;6262359;28;20245;-58
2023/03/26 04:29:23;;;;;;;2.27;2.07;;;;;;;;;;6262338;28;20325;-59
2023/03/26 04:32:28;;;;;;;2.17;1.97;;;;;;;;;;6230092;28;20254;-59
2023/03/26 04:35:33;;;;;;;3.43;2.10;;;;;;;;;;6256998;28;20191;-59
2023/03/26 04:38:39;;;;;;;2.67;2.00;;;;;;;;;;6258470;28;20191;-59
2023/03/26 04:41:40;;;;;;;3.13;2.20;;;;;;;;;;6240058;28;20215;-59
2023/03/26 04:44:41;;;;;;;2.63;2.17;;;;;;;;;;6250939;28;20186;-58
2023/03/26 04:47:45;;;;;;;2.73;2.53;;;;;;;;;;6231936;28;20209;-58
2023/03/26 04:50:46;;;;;;;2.23;2.03;;;;;;;;;;6255544;28;20307;-59
2023/03/26 04:53:51;;;;;;;3.13;2.30;;;;;;;;;;6246338;28;20190;-59
2023/03/26 04:56:57;;;;;;;2.40;2.20;;;;;;;;;;6241785;28;20273;-59
2023/03/26 04:59:59;;;;;;;2.23;2.03;;;;;;;;;;6243975;28;20207;-60
2023/03/26 05:03:00;;;;;;;3.90;2.43;;;;;;;;;;6247429;28;20187;-60
2023/03/26 05:06:01;;;;;;;2.73;2.53;;;;;;;;;;6263600;28;20200;-60
2023/03/26 05:09:03;;;;;;;1.87;1.77;;;;;;;;;;6226032;28;20213;-60
2023/03/26 05:12:04;;;;;;;2.53;2.10;;;;;;;;;;6231898;28;20194;-60
2023/03/26 05:15:05;;;;;;;2.73;2.53;;;;;;;;;;6265182;28;20240;-59
2023/03/26 05:18:07;;;;;;;3.30;2.60;;;;;;;;;;6264993;28;20237;-59
2023/03/26 05:21:09;;;;;;;2.57;2.33;;;;;;;;;;6251932;28;20195;-60
2023/03/26 05:24:10;;;;;;;3.47;2.37;;;;;;;;;;6230201;28;20293;-60
2023/03/26 05:27:21;;;;;;;2.97;2.50;;;;;;;;;;6230518;28;20226;-60
2023/03/26 05:30:22;;;;;;;6.13;2.53;;;;;;;;;;6232967;28;20303;-60
2023/03/26 05:33:23;;;;;;;2.17;1.93;;;;;;;;;;6225391;28;20272;-59
2023/03/26 05:36:24;;;;;;;2.57;2.37;;;;;;;;;;6221615;28;20186;-60
2023/03/26 05:39:26;;;;;;;2.30;2.07;;;;;;;;;;6232973;28;20225;-58
2023/03/26 05:42:27;;;;;;;2.40;1.90;;;;;;;;;;6265438;28;20214;-57
2023/03/26 05:45:28;;;;;;;3.63;2.73;;;;;;;;;;6266102;28;20240;-58
2023/03/26 05:48:29;;;;;;;2.17;1.97;;;;;;;;;;6249854;28;20214;-58
2023/03/26 05:51:30;;;;;;;2.60;2.23;;;;;;;;;;6230044;28;20291;-58
2023/03/26 05:54:32;;;;;;;2.57;2.37;;;;;;;;;;6263804;28;20281;-58
2023/03/26 05:57:34;;;;;;;2.50;2.20;;;;;;;;;;6230724;28;20191;-58
2023/03/26 06:00:37;;;;;;;4.07;2.67;;;;;;;;;;6282231;28;20187;-58
2023/03/26 06:03:39;;;;;;;3.30;2.13;;;;;;;;;;6241502;28;20183;-59
2023/03/26 06:06:40;;;;;;;3.33;2.63;;;;;;;;;;6248510;28;20195;-59
2023/03/26 06:09:41;;;;;;;3.40;2.70;;;;;;;;;;6226411;28;20244;-59
2023/03/26 06:12:42;;;;;;;4.60;2.70;;;;;;;;;;6245812;28;20221;-59
2023/03/26 06:15:43;;;;;;;3.90;3.50;;;;;;;;;;6220726;28;20191;-59
2023/03/26 06:18:44;;;;;;;3.23;1.93;;;;;;;;;;6250997;28;20202;-59
2023/03/26 06:21:45;;;;;;;2.80;2.50;;;;;;;;;;6264863;28;20292;-59
2023/03/26 06:24:46;;;;;;;2.13;2.03;;;;;;;;;;6264878;28;20284;-59
2023/03/26 06:27:48;;;;;;;2.47;2.27;;;;;;;;;;6229706;28;20293;-59
2023/03/26 06:30:49;;;;;;;3.77;3.03;;;;;;;;;;6259979;28;20238;-59
2023/03/26 06:33:50;;;;;;;4.90;4.37;;;;;;;;;;6246719;28;20198;-59
2023/03/26 06:36:52;;;;;;;4.77;3.63;;;;;;;;;;6249183;28;20191;-58
2023/03/26 06:39:53;;;;;;;6.10;4.40;;;;;;;;;;6229852;28;20221;-58
2023/03/26 06:42:55;;;;;;;4.83;4.33;;;;;;;;;;6246713;28;20194;-59
2023/03/26 06:45:57;;;;;;;5.97;5.07;;;;;;;;;;6248166;28;20196;-59
2023/03/26 06:48:58;;;;;;;6.30;5.27;;;;;;;;;;6261532;28;20216;-58
2023/03/26 06:52:01;;;;;;;5.60;4.53;;;;;;;;;;6258303;28;20330;-59
2023/03/26 06:55:04;;;;;;;7.40;4.87;;;;;;;;;;6230486;28;20190;-59
2023/03/26 06:58:05;;;;;;;5.20;4.67;;;;;;;;;;6224671;28;20252;-59
2023/03/26 07:01:06;;;;;;;5.37;4.67;;;;;;;;;;6247459;28;20245;-58
2023/03/26 07:04:07;;;;;;;6.57;4.53;;;;;;;;;;6234205;28;20201;-60
2023/03/26 07:07:09;;;;;;;6.27;5.10;;;;;;;;;;6227175;28;20186;-60
2023/03/26 07:10:10;;;;;;;5.67;4.57;;;;;;;;;;6239108;28;20222;-60
2023/03/26 07:13:11;;;;;;;6.17;4.80;;;;;;;;;;6252965;28;20222;-60
2023/03/26 07:16:12;;;;;;;5.87;5.27;;;;;;;;;;6243998;28;20225;-61
2023/03/26 07:19:13;;;;;;;4.90;4.50;;;;;;;;;;6218827;28;20197;-60
2023/03/26 07:22:24;;;;;;;6.30;4.60;;;;;;;;;;6230457;28;20198;-59
2023/03/26 07:25:25;;;;;;;5.17;4.67;;;;;;;;;;6258841;28;20191;-59
2023/03/26 07:28:35;;;;;;;4.90;4.40;;;;;;;;;;6230978;28;20371;-59
2023/03/26 07:31:40;;;;;;;4.20;3.80;;;;;;;;;;6246878;28;20239;-61
2023/03/26 07:34:50;;;;;;;4.60;4.20;;;;;;;;;;6250294;28;20190;-61
2023/03/26 07:38:10;;;;;;;4.40;4.00;;;;;;;;;;6250487;28;20230;-62
2023/03/26 07:41:14;;;;;;;4.33;3.83;;;;;;;;;;6247787;28;20237;-61
2023/03/26 07:44:15;;;;;;;5.83;4.00;;;;;;;;;;6249214;28;20207;-61
2023/03/26 07:47:24;;;;;;;6.17;3.87;;;;;;;;;;6234040;28;20237;-62
2023/03/26 07:50:25;;;;;;;4.20;3.73;;;;;;;;;;6238240;28;20257;-61
2023/03/26 07:53:27;;;;;;;4.20;3.77;;;;;;;;;;6246938;28;20191;-60
2023/03/26 07:56:34;;;;;;;3.87;3.53;;;;;;;;;;6239057;28;20209;-61
2023/03/26 07:59:54;;;;;;;3.57;3.27;;;;;;;;;;6261092;28;20188;-61
2023/03/26 08:02:55;;;;;;;3.43;3.13;;;;;;;;;;6240075;28;20249;-58
2023/03/26 08:06:06;;;;;;;3.60;3.30;;;;;;;;;;6251349;28;20190;-60
2023/03/26 08:09:07;;;;;;;4.93;2.97;;;;;;;;;;6239714;28;20207;-60
2023/03/26 08:12:09;;;;;;;3.50;2.90;;;;;;;;;;6246342;28;20190;-60
2023/03/26 08:15:10;;;;;;;3.30;3.00;;;;;;;;;;6251683;28;20187;-59
2023/03/26 08:18:30;;;;;;;3.30;3.00;;;;;;;;;;6255127;28;20186;-60
2023/03/26 08:21:38;;;;;;;4.30;3.10;;;;;;;;;;6248043;28;20219;-58
2023/03/26 08:24:42;;;;;;;4.00;3.60;;;;;;;;;;6244972;28;20191;-59
2023/03/26 08:27:48;;;;;;;5.27;3.27;;;;;;;;;;6249840;28;20194;-59
2023/03/26 08:30:49;;;;;;;4.67;3.83;;;;;;;;;;6256769;28;20242;-59
2023/03/26 08:33:50;;;;;;;3.93;3.40;;;;;;;;;;6257781;28;20191;-59
2023/03/26 08:36:51;;;;;;;4.77;4.27;;;;;;;;;;6265151;28;20285;-59
2023/03/26 08:39:53;;;;;;;6.60;4.10;;;;;;;;;;6226812;28;20285;-59
2023/03/26 08:43:09;;;;;;;3.93;3.50;;;;;;;;;;6266095;28;20226;-58
2023/03/26 08:46:10;;;;;;;3.50;3.03;;;;;;;;;;6238581;28;20285;-59
2023/03/26 08:49:29;;;;;;;3.43;3.13;;;;;;;;;;6243209;28;20214;-58
2023/03/26 08:52:36;;;;;;;4.27;3.77;;;;;;;;;;6249388;28;20187;-59
2023/03/26 08:55:40;;;;;;;4.07;3.67;;;;;;;;;;6257216;28;20270;-59
2023/03/26 08:58:59;;;;;;;4.83;3.60;;;;;;;;;;6250657;28;20194;-59
2023/03/26 09:02:03;;;;;;;4.83;3.90;;;;;;;;;;6249585;28;20187;-58
2023/03/26 09:05:17;;;;;;;3.97;3.57;;;;;;;;;;6237371;28;20195;-58
2023/03/26 09:08:18;;;;;;;4.17;3.77;;;;;;;;;;6233323;28;20198;-58
2023/03/26 09:11:28;;;;;;;3.63;2.43;;;;;;;;;;6249512;28;20189;-59
2023/03/26 09:14:39;;;;;;;3.27;2.93;;;;;;;;;;6244874;28;20190;-58
2023/03/26 09:17:58;;;;;;;3.70;2.70;;;;;;;;;;6247633;28;20218;-59
2023/03/26 09:21:20;;;;;;;2.57;2.10;;;;;;;;;;6249153;28;20267;-58
2023/03/26 09:24:30;;;;;;;2.30;2.10;;;;;;;;;;6248604;28;20191;-59
2023/03/26 09:27:50;;;;;;;4.07;2.60;;;;;;;;;;6238954;28;20203;-59
2023/03/26 09:31:00;;;;;;;2.97;2.27;;;;;;;;;;6249409;28;20246;-58
2023/03/26 09:34:16;;;;;;;5.43;2.87;;;;;;;;;;6240764;28;20191;-58
2023/03/26 09:37:25;;;;;;;2.83;2.37;;;;;;;;;;6270396;28;20230;-58
2023/03/26 09:40:45;;;;;;;3.30;2.33;;;;;;;;;;6255326;28;20193;-58
2023/03/26 09:43:47;;;;;;;4.30;2.77;;;;;;;;;;6249634;28;20183;-58
2023/03/26 09:46:59;;;;;;;2.97;2.50;;;;;;;;;;6257872;28;20197;-57
2023/03/26 09:50:15;;;;;;;2.80;2.10;;;;;;;;;;6246729;28;20293;-57
2023/03/26 09:53:16;;;;;;;3.23;2.50;;;;;;;;;;6240749;28;20184;-57
2023/03/26 09:56:37;;;;;;;4.57;2.57;;;;;;;;;;6273955;28;20213;-58
2023/03/26 09:59:45;;;;;;;3.47;2.10;;;;;;;;;;6250033;28;20206;-56
2023/03/26 10:02:58;;;;;;;3.57;2.40;;;;;;;;;;6245026;28;20197;-57
2023/03/26 10:05:59;;;;;;;2.30;2.10;;;;;;;;;;6243681;28;20281;-57
2023/03/26 10:09:09;;;;;;;2.17;1.90;;;;;;;;;;6236325;28;20237;-57
2023/03/26 10:12:10;;;;;;;2.50;2.07;;;;;;;;;;6252333;28;20183;-57
2023/03/26 10:15:26;;;;;;;3.60;2.47;;;;;;;;;;6248674;28;20186;-58
2023/03/26 10:18:33;;;;;;;2.90;2.60;;;;;;;;;;6250538;28;20190;-57
2023/03/26 10:21:43;;;;;;;2.77;2.57;;;;;;;;;;6245981;28;20174;-57
2023/03/26 10:25:05;;;;;;;2.50;2.10;;;;;;;;;;6245673;28;20198;-58
2023/03/26 10:28:06;;;;;;;3.23;2.70;;;;;;;;;;6246107;28;20227;-57
2023/03/26 10:31:18;;;;;;;3.30;2.73;;;;;;;;;;6245210;28;20274;-58
2023/03/26 10:34:29;;;;;;;2.90;2.27;;;;;;;;;;6241544;28;20211;-58
2023/03/26 10:37:39;;;;;;;3.10;2.40;;;;;;;;;;6247527;28;20190;-58
2023/03/26 10:40:47;;;;;;;3.20;2.50;;;;;;;;;;6247424;28;20191;-58
2023/03/26 10:43:56;;;;;;;3.90;2.40;;;;;;;;;;6243588;28;20288;-57
2023/03/26 10:47:12;;;;;;;2.60;2.10;;;;;;;;;;6253093;28;20214;-58
2023/03/26 10:50:23;;;;;;;3.10;2.57;;;;;;;;;;6253096;28;20211;-58
2023/03/26 10:53:44;;;;;;;3.17;2.37;;;;;;;;;;6249875;28;20191;-58
2023/03/26 10:56:46;;;;;;;3.10;2.10;;;;;;;;;;6211278;28;20220;-58
2023/03/26 10:59:47;;;;;;;4.33;2.50;;;;;;;;;;6270972;28;20195;-58
2023/03/26 11:02:54;;;;;;;2.73;2.23;;;;;;;;;;6228571;28;20199;-58
2023/03/26 11:05:59;;;;;;;2.93;2.67;;;;;;;;;;6250668;28;20288;-58
2023/03/26 11:09:03;;;;;;;2.80;2.60;;;;;;;;;;6241536;28;20219;-58
2023/03/26 11:12:10;;;;;;;2.80;2.50;;;;;;;;;;6241300;28;20184;-58
2023/03/26 11:15:11;;;;;;;9.43;3.10;;;;;;;;;;6245213;28;20194;-58
2023/03/26 11:18:22;;;;;;;2.40;2.20;;;;;;;;;;6240228;28;20210;-58
2023/03/26 11:21:25;;;;;;;2.30;2.10;;;;;;;;;;6237825;28;20189;-58
2023/03/26 11:24:39;;;;;;;3.10;2.33;;;;;;;;;;6240544;28;20191;-58
2023/03/26 11:27:43;;;;;;;2.97;2.03;;;;;;;;;;6256971;28;20191;-58
2023/03/26 11:30:50;;;;;;;2.93;2.50;;;;;;;;;;6276127;28;20239;-58
2023/03/26 11:33:55;;;;;;;2.47;2.27;;;3.10;94.10;;;;;;6238349;28;20191;-58
2023/03/26 11:36:57;;;;;;;2.87;2.07;;;14.30;58.50;;;;;;6249687;28;20194;-58
2023/03/26 11:40:01;;;;;;;3.47;2.33;;;14.60;59.80;;;;;;6246902;28;20278;-58
2023/03/26 11:43:06;;;;;;;3.73;2.53;;;14.90;58.10;;;;;;6250217;28;20245;-58
2023/03/26 11:46:11;;;;;;;3.23;2.63;;;14.70;54.00;;;;;;6249015;28;20245;-59
2023/03/26 11:49:17;;;;;;;5.07;2.70;;;14.80;54.30;;;;;;6247294;28;20282;-58
2023/03/26 11:52:18;;;;;;;2.60;2.37;;;14.90;54.30;;;;;;6246104;28;20218;-58
2023/03/26 11:55:19;;;;;;;3.67;2.77;;;14.40;53.60;;;;;;6267227;28;20186;-58
2023/03/26 11:58:41;;;;;;;2.93;2.50;;;14.50;55.50;;;;;;6250376;28;20195;-58
2023/03/26 12:01:56;;;;;;;3.20;2.87;;;14.80;58.10;;;;;;6241380;28;20221;-56
2023/03/26 12:05:16;;;;;;;2.63;2.40;;;15.20;54.90;;;;;;6261816;28;20198;-58
2023/03/26 12:08:29;;;;;;;4.13;3.30;;;15.40;55.70;;;;;;6244040;28;20191;-59
2023/03/26 12:11:33;;;;;;;3.90;2.90;;;15.30;54.60;;;;;;6237791;28;20183;-56
2023/03/26 12:14:34;;;;;;;4.13;3.33;;;15.30;57.20;;;;;;6267122;28;20188;-57
2023/03/26 12:17:38;;;;;;;3.10;2.80;;;15.10;54.30;;;;;;6233420;28;20190;-56
2023/03/26 12:20:41;;;;;;;3.40;2.90;;;15.50;53.20;;;;;;6242771;28;20214;-56
2023/03/26 12:24:02;;;;;;;5.23;2.93;;;15.60;52.50;;;;;;6235969;28;20225;-57
2023/03/26 12:27:27;;;;;;;2.73;2.50;;;16.00;51.70;;;;;;6266744;28;20214;-55
2023/03/26 12:30:32;;;;;;;2.77;2.47;;;15.40;52.20;;;;;;6266735;28;20250;-56
2023/03/26 12:33:34;;;;;;;4.23;2.90;;;15.20;52.00;;;;;;6237742;28;20283;-56
2023/03/26 12:36:37;;;;;;;3.97;3.50;;;15.20;54.10;;;;;;6225795;28;20194;-55
2023/03/26 12:39:42;;;;;;;3.17;2.33;;;15.30;53.40;;;;;;6266361;28;20196;-56
2023/03/26 12:42:51;;;;;;;3.27;2.97;;;15.30;56.10;;;;;;6249934;28;20197;-54
2023/03/26 12:45:57;;;;;;;3.70;3.40;;;15.40;53.30;;;;;;6248463;28;20206;-56
2023/03/26 12:49:04;;;;;;;3.07;2.77;;;15.20;54.40;;;;;;6223120;28;20222;-55
2023/03/26 12:52:24;;;;;;;2.90;2.70;;;15.30;53.30;;;;;;6242228;28;20326;-56
2023/03/26 12:56:01;;;;;;;3.13;2.70;;;15.40;55.80;;;;;;6242845;28;20259;-55
2023/03/26 12:59:04;;;;;;;4.27;2.90;;;16.00;52.30;;;;;;6243491;28;20186;-56
2023/03/26 13:02:36;;;;;;;4.03;2.60;;;16.60;51.20;;;;;;6251328;28;20198;-55
2023/03/26 13:05:41;;;;;;;4.10;3.50;;;16.80;51.90;;;;;;6251002;28;20278;-56
2023/03/26 13:08:57;;;;;;;3.40;3.10;;;16.50;50.50;;;;;;6256723;28;20226;-56
2023/03/26 13:12:18;;;;;;;3.43;3.13;;;16.60;52.00;;;;;;6247940;28;20270;-56
2023/03/26 13:15:36;;;;;;;3.47;2.70;;;17.00;49.50;;;;;;6242173;28;20199;-55
2023/03/26 13:18:58;;;;;;;3.53;3.23;;;17.50;50.80;;;;;;6234043;28;20204;-56
2023/03/26 13:22:21;;;;;;;3.00;2.70;;;18.20;48.50;;;;;;6248747;28;20195;-56
2023/03/26 13:25:35;;;;;;;2.57;2.27;;;;;;;;;;6243216;28;20195;-56
2023/03/26 13:28:48;;;;;;;6.53;2.77;;;20.00;45.50;;;;;;6239338;28;20192;-56
2023/03/26 13:32:21;;;;;;;3.33;3.13;;;20.60;44.30;;;;;;6249392;28;20235;-56
2023/03/26 13:35:32;;;;;;;3.30;3.00;;;20.40;44.00;;;;;;6213196;28;20204;-55
2023/03/26 13:38:35;;;;;;;3.03;2.73;;;18.80;47.00;;;;;;6249581;28;20198;-55
2023/03/26 13:42:06;;;;;;;3.93;2.87;;;18.50;48.10;;;;;;6244498;28;20191;-55
2023/03/26 13:45:19;;;;;;;3.30;2.97;;;18.30;47.60;;;;;;6245104;28;20197;-54
2023/03/26 13:48:27;;;;;;;3.37;3.17;;;17.70;47.80;;;;;;6252954;28;20191;-54
2023/03/26 13:52:01;;;;;;;3.30;3.00;;;16.90;49.50;;;;;;6237380;28;20195;-53
2023/03/26 13:55:13;;;;;;;5.93;3.37;;;17.00;50.60;;;;;;6247477;28;20194;-55
2023/03/26 13:58:27;;;;;;;4.70;2.80;;;16.80;50.70;;;;;;6242467;28;20290;-57
2023/03/26 14:01:39;;;;;;;3.10;2.83;;;16.50;51.00;;;;;;6255992;28;20216;-54
2023/03/26 14:04:49;;;;;;;4.03;2.70;;;16.40;52.50;;;;;;6242430;28;20188;-56
2023/03/26 14:08:04;;;;;;;3.80;3.10;;;16.10;51.80;;;;;;6246457;28;20261;-56
2023/03/26 14:11:40;;;;;;;4.20;3.37;;;15.70;52.30;;;;;;6272164;28;20257;-56
2023/03/26 14:15:05;;;;;;;3.43;3.13;;;15.50;53.40;;;;;;6260874;28;20200;-57
2023/03/26 14:18:22;;;;;;;4.13;3.10;;;15.40;53.60;;;;;;6242889;28;20205;-56
2023/03/26 14:21:54;;;;;;;2.93;2.63;;;15.20;54.40;;;;;;6245350;28;20196;-56
2023/03/26 14:25:10;;;;;;;3.07;2.67;;;15.20;55.10;;;;;;6246359;28;20187;-57
2023/03/26 14:28:32;;;;;;;3.20;2.60;;;15.30;56.20;;;;;;6237861;28;20196;-56
2023/03/26 14:32:10;;;;;;;2.40;2.20;;;15.30;56.50;;;;;;6252707;28;20227;-56
2023/03/26 14:35:24;;;;;;;5.53;3.33;;;15.30;56.30;;;;;;6248611;28;20188;-57
2023/03/26 14:38:53;;;;;;;4.27;3.53;;;15.00;56.40;;;;;;6242362;28;20191;-57
2023/03/26 14:42:18;;;;;;;2.80;2.60;;;15.00;57.20;;;;;;6243980;28;20198;-57
2023/03/26 14:45:40;;;;;;;3.67;2.50;;;15.00;55.40;;;;;;6239912;28;20273;-57
2023/03/26 14:49:08;;;;;;;2.83;2.10;;;15.00;57.80;;;;;;6231185;28;22138;-57
2023/03/26 14:52:31;;;;;;;2.33;2.13;;;15.00;57.40;;;;;;6231844;28;20192;-56
2023/03/26 14:56:00;;;;;;;2.30;2.10;;;15.00;57.70;;;;;;6227745;28;20191;-57
2023/03/26 14:59:43;;;;;;;3.63;2.27;;;15.00;56.30;;;;;;6234891;28;20201;-57
2023/03/26 15:03:02;;;;;;;4.00;2.83;;;15.00;57.90;;;;;;6252055;28;20191;-57
2023/03/26 15:06:57;;;;;;;2.63;2.30;;;15.00;58.00;;;;;;6235401;28;20199;-57
2023/03/26 15:10:21;;;;;;;4.13;2.73;;;15.00;59.00;;;;;;6220804;28;20219;-57
2023/03/26 15:13:25;;;;;;;4.13;2.50;;;15.00;59.10;;;;;;6246630;28;20234;-56
2023/03/26 15:16:45;;;;;;;5.00;2.90;;;14.90;58.50;;;;;;6246313;28;20197;-57
2023/03/26 15:20:14;;;;;;;3.77;2.20;;;14.80;59.10;;;;;;6240809;28;20198;-57
2023/03/26 15:23:47;;;;;;;3.97;2.17;;;14.80;59.30;;;;;;6247018;28;20187;-55
2023/03/26 15:27:23;;;;;;;3.30;2.57;;;14.70;59.10;;;;;;6202524;28;20206;-57
2023/03/26 15:31:12;;;;;;;2.97;2.03;;;14.60;60.90;;;;;;6241870;28;20263;-56
2023/03/26 15:34:13;;;;;;;2.53;2.13;;;14.50;61.50;;;;;;6168095;28;20298;-57
2023/03/26 15:37:33;;;;;;;2.60;2.40;;;14.40;60.80;;;;;;6208892;28;20201;-57
2023/03/26 15:41:07;;;;;;;3.20;2.50;;;14.30;62.20;;;;;;6256817;28;20198;-55
2023/03/26 15:44:17;;;;;;;2.80;2.17;;;14.20;62.30;;;;;;6244016;28;20194;-57
2023/03/26 15:47:36;;;;;;;6.60;3.20;;;14.10;63.30;;;;;;6245436;28;20195;-57
2023/03/26 15:50:44;;;;;;;4.30;3.10;;;14.10;62.90;;;;;;6247120;28;20219;-56
2023/03/26 15:53:48;;;;;;;3.87;2.93;;;13.90;62.10;;;;;;6228136;28;20190;-57
2023/03/26 15:57:27;;;;;;;3.80;3.10;;;13.90;60.30;;;;;;6246243;28;20183;-57
2023/03/26 16:00:34;;;;;;;4.00;2.77;;;13.80;62.30;;;;;;6257821;28;20266;-57
2023/03/26 16:03:47;;;;;;;3.53;3.00;;;13.70;62.30;;;;;;6239389;28;20195;-56
2023/03/26 16:06:54;;;;;;;3.33;2.87;;;13.60;63.10;;;;;;6255202;28;20226;-56
2023/03/26 16:10:17;;;;;;;4.20;3.53;;;13.50;64.30;;;;;;6258158;28;20221;-56
2023/03/26 16:13:40;;;;;;;8.77;3.03;;;13.50;64.90;;;;;;6240490;28;20191;-57
2023/03/26 16:16:58;;;;;;;3.80;3.50;;;13.40;65.90;;;;;;6249632;28;20198;-54
2023/03/26 16:20:30;;;;;;;5.37;3.90;;;13.40;64.70;;;;;;6249971;28;20249;-56
2023/03/26 16:23:43;;;;;;;4.10;3.67;;;13.30;67.50;;;;;;6259356;28;20282;-57
2023/03/26 16:26:50;;;;;;;4.37;4.00;;;;;;;;;;6242813;28;20199;-57
2023/03/26 16:30:01;;;;;;;3.17;2.87;;;;;;;;;;6252711;28;20215;-57
2023/03/26 16:33:25;;;;;;;2.70;2.50;;;;;;;;;;6243069;28;20281;-57
2023/03/26 16:36:35;;;;;;;2.10;1.90;;;;;;;;;;6238432;28;20274;-58
2023/03/26 16:39:42;;;;;;;2.73;1.70;;;;;;;;;;6233178;28;20194;-57
2023/03/26 16:43:02;;;;;;;2.63;2.00;;;;;;;;;;6249385;28;20213;-57
2023/03/26 16:46:22;;;;;;;3.73;2.13;;;;;;;;;;6250779;28;20187;-58
2023/03/26 16:49:30;;;;;;;5.07;3.27;;;;;;;;;;6250107;28;20214;-58
2023/03/26 16:52:41;;;;;;;4.33;3.13;;;;;;;;;;6240448;28;20229;-59
2023/03/26 16:55:55;;;;;;;2.90;2.60;;;;;;;;;;6265090;28;20224;-58
2023/03/26 16:59:00;;;;;;;5.50;2.80;;;;;;;;;;6249691;28;20206;-59
2023/03/26 17:02:20;;;;;;;6.53;2.67;;;;;;;;;;6243838;28;20190;-61
2023/03/26 17:05:33;;;;;;;4.03;3.13;;;;;;;;;;6257660;28;20222;-61
2023/03/26 17:08:58;;;;;;;5.17;2.93;;;;;;;;;;6238391;28;20227;-61
2023/03/26 17:12:25;;;;;;;4.27;3.00;;;12.90;69.90;;;;;;6250717;28;20187;-64
2023/03/26 17:15:58;;;;;;;4.07;3.67;;;9.30;91.20;;;;;;6250570;28;20191;-65
2023/03/26 17:19:03;;;;;;;4.57;3.83;;;;;;;;;;6255686;28;20222;-64
2023/03/26 17:22:23;;;;;;;4.77;4.27;;;;;;;;;;6246606;28;20206;-63
2023/03/26 17:25:33;;;;;;;6.10;5.00;;;;;;;;;;6255652;28;20214;-63
2023/03/26 17:28:40;;;;;;;5.60;5.07;;;;;;;;;;6247665;28;20190;-62
2023/03/26 17:31:41;;;;;;;4.97;4.20;;;;;;;;;;6257188;28;20230;-63
2023/03/26 17:35:00;;;;;;;4.30;3.43;;;;;;;;;;6251154;28;20630;-61
2023/03/26 17:38:02;;;;;;;4.43;3.80;;;;;;;;;;6248728;28;20190;-61
2023/03/26 17:41:03;;;;;;;3.00;2.80;;;;;;;;;;6246889;28;20202;-62
2023/03/26 17:44:26;;;;;;;5.87;3.47;;;;;;;;;;6257878;28;20210;-62
2023/03/26 17:47:27;;;;;;;3.97;3.20;;;;;;;;;;6245252;28;20200;-62
2023/03/26 17:50:34;;;;;;;4.33;3.00;;;;;;;;;;6249908;28;20214;-62
2023/03/26 17:53:36;;;;;;;3.70;3.40;;;;;;;;;;6240690;28;20240;-62
2023/03/26 17:56:39;;;;;;;3.30;2.97;;;;;;;;;;6232071;28;20187;-62
2023/03/26 17:59:42;;;;;;;2.90;2.60;;;;;;;;;;6259552;28;20194;-62
2023/03/26 18:02:49;;;;;;;5.00;4.57;;;;;;;;;;6249308;28;20337;-63
2023/03/26 18:05:55;;;;;;;6.30;4.23;;;;;;;;;;6243022;28;20187;-61